sensor_id;sensor_type;location;lat;lon;timestamp;P1;durP1;ratioP1;P2;durP2;ratioP2
79668;SDS011;69136;52.614;6.976;2024-02-21T00:00:14;26.58;;;11.10;;
79668;SDS011;69136;52.614;6.976;2024-02-21T00:02:59;24.65;;;10.65;;
79668;SDS011;69136;52.614;6.976;2024-02-21T00:05:46;26.17;;;11.35;;
79668;SDS011;69136;52.614;6.976;2024-02-21T00:08:30;26.75;;;11.73;;
79668;SDS011;69136;52.614;6.976;2024-02-21T00:11:14;28.90;;;12.85;;
79668;SDS011;69136;52.614;6.976;2024-02-21T00:13:58;26.02;;;10.48;;
79668;SDS011;69136;52.614;6.976;2024-02-21T00:16:43;32.25;;;11.18;;
79668;SDS011;69136;52.614;6.976;2024-02-21T00:22:11;25.65;;;11.40;;
79668;SDS011;69136;52.614;6.976;2024-02-21T00:24:55;26.25;;;10.35;;
79668;SDS011;69136;52.614;6.976;2024-02-21T00:27:39;24.67;;;12.70;;
79668;SDS011;69136;52.614;6.976;2024-02-21T00:30:24;29.80;;;11.10;;
79668;SDS011;69136;52.614;6.976;2024-02-21T00:33:09;24.27;;;10.98;;
79668;SDS011;69136;52.614;6.976;2024-02-21T00:35:52;25.65;;;11.02;;
79668;SDS011;69136;52.614;6.976;2024-02-21T00:38:37;31.85;;;11.70;;
79668;SDS011;69136;52.614;6.976;2024-02-21T00:41:21;25.63;;;11.82;;
79668;SDS011;69136;52.614;6.976;2024-02-21T00:44:05;23.90;;;10.43;;
79668;SDS011;69136;52.614;6.976;2024-02-21T00:46:50;27.27;;;11.18;;
79668;SDS011;69136;52.614;6.976;2024-02-21T00:49:34;26.67;;;11.20;;
79668;SDS011;69136;52.614;6.976;2024-02-21T00:52:18;26.65;;;11.48;;
79668;SDS011;69136;52.614;6.976;2024-02-21T00:55:03;29.40;;;11.80;;
79668;SDS011;69136;52.614;6.976;2024-02-21T00:57:48;27.83;;;10.38;;
79668;SDS011;69136;52.614;6.976;2024-02-21T01:00:32;25.05;;;10.68;;
79668;SDS011;69136;52.614;6.976;2024-02-21T01:03:15;24.17;;;10.52;;
79668;SDS011;69136;52.614;6.976;2024-02-21T01:06:00;28.58;;;11.35;;
79668;SDS011;69136;52.614;6.976;2024-02-21T01:08:44;29.15;;;12.23;;
79668;SDS011;69136;52.614;6.976;2024-02-21T01:11:28;33.72;;;11.95;;
79668;SDS011;69136;52.614;6.976;2024-02-21T01:14:12;26.45;;;10.60;;
79668;SDS011;69136;52.614;6.976;2024-02-21T01:16:57;28.20;;;11.70;;
79668;SDS011;69136;52.614;6.976;2024-02-21T01:19:41;20.65;;;9.90;;
79668;SDS011;69136;52.614;6.976;2024-02-21T01:22:26;25.33;;;10.70;;
79668;SDS011;69136;52.614;6.976;2024-02-21T01:27:53;23.33;;;10.35;;
79668;SDS011;69136;52.614;6.976;2024-02-21T01:33:21;23.50;;;9.90;;
79668;SDS011;69136;52.614;6.976;2024-02-21T01:36:05;25.52;;;10.32;;
79668;SDS011;69136;52.614;6.976;2024-02-21T01:38:50;24.10;;;10.48;;
79668;SDS011;69136;52.614;6.976;2024-02-21T01:44:18;22.92;;;8.60;;
79668;SDS011;69136;52.614;6.976;2024-02-21T01:49:46;26.33;;;9.88;;
79668;SDS011;69136;52.614;6.976;2024-02-21T01:55:14;23.17;;;10.40;;
79668;SDS011;69136;52.614;6.976;2024-02-21T01:57:58;23.63;;;10.45;;
79668;SDS011;69136;52.614;6.976;2024-02-21T02:00:43;24.45;;;10.43;;
79668;SDS011;69136;52.614;6.976;2024-02-21T02:03:27;23.40;;;10.27;;
79668;SDS011;69136;52.614;6.976;2024-02-21T02:06:12;22.50;;;9.30;;
79668;SDS011;69136;52.614;6.976;2024-02-21T02:08:57;23.30;;;9.43;;
79668;SDS011;69136;52.614;6.976;2024-02-21T02:11:40;27.15;;;10.20;;
79668;SDS011;69136;52.614;6.976;2024-02-21T02:14:26;25.23;;;9.90;;
79668;SDS011;69136;52.614;6.976;2024-02-21T02:19:54;20.05;;;10.32;;
79668;SDS011;69136;52.614;6.976;2024-02-21T02:22:38;19.20;;;9.27;;
79668;SDS011;69136;52.614;6.976;2024-02-21T02:25:23;20.42;;;9.73;;
79668;SDS011;69136;52.614;6.976;2024-02-21T02:28:07;21.95;;;10.45;;
79668;SDS011;69136;52.614;6.976;2024-02-21T02:30:52;20.88;;;10.32;;
79668;SDS011;69136;52.614;6.976;2024-02-21T02:33:36;19.67;;;9.80;;
79668;SDS011;69136;52.614;6.976;2024-02-21T02:36:20;17.30;;;8.77;;
79668;SDS011;69136;52.614;6.976;2024-02-21T02:39:04;20.80;;;9.18;;
79668;SDS011;69136;52.614;6.976;2024-02-21T02:41:49;21.60;;;9.98;;
79668;SDS011;69136;52.614;6.976;2024-02-21T02:44:33;18.20;;;9.15;;
79668;SDS011;69136;52.614;6.976;2024-02-21T02:47:17;19.30;;;8.85;;
79668;SDS011;69136;52.614;6.976;2024-02-21T02:50:01;20.38;;;10.73;;
79668;SDS011;69136;52.614;6.976;2024-02-21T02:52:46;18.85;;;9.25;;
79668;SDS011;69136;52.614;6.976;2024-02-21T02:55:29;20.52;;;9.18;;
79668;SDS011;69136;52.614;6.976;2024-02-21T02:58:14;18.13;;;8.82;;
79668;SDS011;69136;52.614;6.976;2024-02-21T03:03:41;17.45;;;9.55;;
79668;SDS011;69136;52.614;6.976;2024-02-21T03:06:26;17.98;;;8.82;;
79668;SDS011;69136;52.614;6.976;2024-02-21T03:09:10;20.25;;;9.30;;
79668;SDS011;69136;52.614;6.976;2024-02-21T03:11:55;21.75;;;8.52;;
79668;SDS011;69136;52.614;6.976;2024-02-21T03:14:41;15.50;;;8.13;;
79668;SDS011;69136;52.614;6.976;2024-02-21T03:20:10;18.02;;;8.55;;
79668;SDS011;69136;52.614;6.976;2024-02-21T03:22:55;18.83;;;8.57;;
79668;SDS011;69136;52.614;6.976;2024-02-21T03:28:23;18.67;;;7.95;;
79668;SDS011;69136;52.614;6.976;2024-02-21T03:33:51;18.83;;;7.45;;
79668;SDS011;69136;52.614;6.976;2024-02-21T03:36:35;17.52;;;7.68;;
79668;SDS011;69136;52.614;6.976;2024-02-21T03:39:19;12.70;;;6.88;;
79668;SDS011;69136;52.614;6.976;2024-02-21T03:42:05;13.65;;;6.40;;
79668;SDS011;69136;52.614;6.976;2024-02-21T03:44:49;13.40;;;6.63;;
79668;SDS011;69136;52.614;6.976;2024-02-21T03:50:17;13.07;;;6.32;;
79668;SDS011;69136;52.614;6.976;2024-02-21T03:53:01;16.65;;;6.53;;
79668;SDS011;69136;52.614;6.976;2024-02-21T03:55:46;15.00;;;6.25;;
79668;SDS011;69136;52.614;6.976;2024-02-21T03:58:30;13.73;;;6.75;;
79668;SDS011;69136;52.614;6.976;2024-02-21T04:01:15;14.70;;;7.90;;
79668;SDS011;69136;52.614;6.976;2024-02-21T04:03:59;13.95;;;7.50;;
79668;SDS011;69136;52.614;6.976;2024-02-21T04:06:49;13.70;;;6.45;;
79668;SDS011;69136;52.614;6.976;2024-02-21T04:09:34;17.38;;;6.68;;
79668;SDS011;69136;52.614;6.976;2024-02-21T04:12:18;12.52;;;6.75;;
79668;SDS011;69136;52.614;6.976;2024-02-21T04:15:02;13.32;;;6.40;;
79668;SDS011;69136;52.614;6.976;2024-02-21T04:17:46;14.25;;;6.85;;
79668;SDS011;69136;52.614;6.976;2024-02-21T04:20:31;16.65;;;6.90;;
79668;SDS011;69136;52.614;6.976;2024-02-21T04:23:16;15.35;;;7.35;;
79668;SDS011;69136;52.614;6.976;2024-02-21T04:28:45;14.38;;;6.47;;
79668;SDS011;69136;52.614;6.976;2024-02-21T04:31:29;14.48;;;6.60;;
79668;SDS011;69136;52.614;6.976;2024-02-21T04:36:56;15.00;;;6.63;;
79668;SDS011;69136;52.614;6.976;2024-02-21T04:39:41;13.45;;;7.03;;
79668;SDS011;69136;52.614;6.976;2024-02-21T04:42:25;14.50;;;6.53;;
79668;SDS011;69136;52.614;6.976;2024-02-21T04:45:09;15.60;;;6.90;;
79668;SDS011;69136;52.614;6.976;2024-02-21T04:47:53;14.40;;;7.22;;
79668;SDS011;69136;52.614;6.976;2024-02-21T04:50:37;15.85;;;6.90;;
79668;SDS011;69136;52.614;6.976;2024-02-21T04:53:21;16.58;;;7.43;;
79668;SDS011;69136;52.614;6.976;2024-02-21T04:56:06;14.93;;;7.22;;
79668;SDS011;69136;52.614;6.976;2024-02-21T04:58:50;15.10;;;8.07;;
79668;SDS011;69136;52.614;6.976;2024-02-21T05:01:34;21.38;;;9.05;;
79668;SDS011;69136;52.614;6.976;2024-02-21T05:04:18;11.23;;;7.32;;
79668;SDS011;69136;52.614;6.976;2024-02-21T05:07:03;18.75;;;7.95;;
79668;SDS011;69136;52.614;6.976;2024-02-21T05:09:48;17.52;;;9.02;;
79668;SDS011;69136;52.614;6.976;2024-02-21T05:12:32;15.15;;;8.15;;
79668;SDS011;69136;52.614;6.976;2024-02-21T05:15:16;16.05;;;8.45;;
79668;SDS011;69136;52.614;6.976;2024-02-21T05:18:00;14.45;;;8.02;;
79668;SDS011;69136;52.614;6.976;2024-02-21T05:23:28;20.85;;;8.95;;
79668;SDS011;69136;52.614;6.976;2024-02-21T05:26:19;20.75;;;8.75;;
79668;SDS011;69136;52.614;6.976;2024-02-21T05:29:04;15.52;;;8.65;;
79668;SDS011;69136;52.614;6.976;2024-02-21T05:34:35;19.17;;;9.10;;
79668;SDS011;69136;52.614;6.976;2024-02-21T05:37:19;19.52;;;8.93;;
79668;SDS011;69136;52.614;6.976;2024-02-21T05:40:03;19.67;;;9.43;;
79668;SDS011;69136;52.614;6.976;2024-02-21T05:42:48;18.05;;;8.60;;
79668;SDS011;69136;52.614;6.976;2024-02-21T05:45:32;18.23;;;8.70;;
79668;SDS011;69136;52.614;6.976;2024-02-21T05:48:16;16.30;;;7.78;;
79668;SDS011;69136;52.614;6.976;2024-02-21T05:53:45;18.40;;;9.70;;
79668;SDS011;69136;52.614;6.976;2024-02-21T05:56:29;18.02;;;8.50;;
79668;SDS011;69136;52.614;6.976;2024-02-21T05:59:13;24.10;;;9.15;;
79668;SDS011;69136;52.614;6.976;2024-02-21T06:01:57;19.55;;;9.02;;
79668;SDS011;69136;52.614;6.976;2024-02-21T06:04:42;18.15;;;8.32;;
79668;SDS011;69136;52.614;6.976;2024-02-21T06:07:26;22.65;;;8.77;;
79668;SDS011;69136;52.614;6.976;2024-02-21T06:10:11;20.38;;;8.10;;
79668;SDS011;69136;52.614;6.976;2024-02-21T06:15:39;22.13;;;8.63;;
79668;SDS011;69136;52.614;6.976;2024-02-21T06:18:23;19.80;;;9.23;;
79668;SDS011;69136;52.614;6.976;2024-02-21T06:21:07;22.00;;;9.43;;
79668;SDS011;69136;52.614;6.976;2024-02-21T06:23:51;33.15;;;9.82;;
79668;SDS011;69136;52.614;6.976;2024-02-21T06:26:35;23.25;;;9.93;;
79668;SDS011;69136;52.614;6.976;2024-02-21T06:29:20;18.58;;;8.18;;
79668;SDS011;69136;52.614;6.976;2024-02-21T06:34:48;24.40;;;9.27;;
79668;SDS011;69136;52.614;6.976;2024-02-21T06:40:25;24.58;;;9.93;;
79668;SDS011;69136;52.614;6.976;2024-02-21T06:43:09;21.75;;;9.45;;
79668;SDS011;69136;52.614;6.976;2024-02-21T06:45:53;22.10;;;10.00;;
79668;SDS011;69136;52.614;6.976;2024-02-21T06:48:39;22.52;;;9.85;;
79668;SDS011;69136;52.614;6.976;2024-02-21T06:51:23;18.92;;;9.27;;
79668;SDS011;69136;52.614;6.976;2024-02-21T06:54:08;20.02;;;9.50;;
79668;SDS011;69136;52.614;6.976;2024-02-21T06:56:53;21.25;;;8.73;;
79668;SDS011;69136;52.614;6.976;2024-02-21T06:59:37;19.80;;;9.38;;
79668;SDS011;69136;52.614;6.976;2024-02-21T07:02:21;17.13;;;9.18;;
79668;SDS011;69136;52.614;6.976;2024-02-21T07:05:06;16.65;;;8.63;;
79668;SDS011;69136;52.614;6.976;2024-02-21T07:07:50;20.83;;;10.30;;
79668;SDS011;69136;52.614;6.976;2024-02-21T07:10:35;16.55;;;8.52;;
79668;SDS011;69136;52.614;6.976;2024-02-21T07:16:03;18.63;;;8.68;;
79668;SDS011;69136;52.614;6.976;2024-02-21T07:18:47;19.17;;;9.40;;
79668;SDS011;69136;52.614;6.976;2024-02-21T07:21:32;18.13;;;8.43;;
79668;SDS011;69136;52.614;6.976;2024-02-21T07:24:16;22.65;;;9.57;;
79668;SDS011;69136;52.614;6.976;2024-02-21T07:27:00;19.88;;;9.13;;
79668;SDS011;69136;52.614;6.976;2024-02-21T07:29:48;20.75;;;9.20;;
79668;SDS011;69136;52.614;6.976;2024-02-21T07:32:33;18.38;;;9.45;;
79668;SDS011;69136;52.614;6.976;2024-02-21T07:35:19;22.60;;;9.98;;
79668;SDS011;69136;52.614;6.976;2024-02-21T07:38:04;17.05;;;8.35;;
79668;SDS011;69136;52.614;6.976;2024-02-21T07:40:48;18.92;;;9.00;;
79668;SDS011;69136;52.614;6.976;2024-02-21T07:43:33;17.17;;;8.95;;
79668;SDS011;69136;52.614;6.976;2024-02-21T07:49:01;19.00;;;8.35;;
79668;SDS011;69136;52.614;6.976;2024-02-21T07:51:46;24.30;;;9.48;;
79668;SDS011;69136;52.614;6.976;2024-02-21T07:54:30;15.48;;;9.18;;
79668;SDS011;69136;52.614;6.976;2024-02-21T07:57:14;17.58;;;9.55;;
79668;SDS011;69136;52.614;6.976;2024-02-21T07:59:58;20.60;;;8.15;;
79668;SDS011;69136;52.614;6.976;2024-02-21T08:02:42;19.90;;;9.32;;
79668;SDS011;69136;52.614;6.976;2024-02-21T08:05:27;16.38;;;8.30;;
79668;SDS011;69136;52.614;6.976;2024-02-21T08:08:14;16.90;;;8.30;;
79668;SDS011;69136;52.614;6.976;2024-02-21T08:11:03;14.75;;;8.80;;
79668;SDS011;69136;52.614;6.976;2024-02-21T08:13:47;21.00;;;8.82;;
79668;SDS011;69136;52.614;6.976;2024-02-21T08:19:15;16.40;;;7.95;;
79668;SDS011;69136;52.614;6.976;2024-02-21T08:22:00;20.50;;;9.15;;
79668;SDS011;69136;52.614;6.976;2024-02-21T08:24:44;19.85;;;8.98;;
79668;SDS011;69136;52.614;6.976;2024-02-21T08:30:12;18.88;;;8.40;;
79668;SDS011;69136;52.614;6.976;2024-02-21T08:32:56;18.75;;;8.10;;
79668;SDS011;69136;52.614;6.976;2024-02-21T08:35:40;19.90;;;8.45;;
79668;SDS011;69136;52.614;6.976;2024-02-21T08:38:25;17.77;;;8.55;;
79668;SDS011;69136;52.614;6.976;2024-02-21T08:41:09;13.77;;;7.32;;
79668;SDS011;69136;52.614;6.976;2024-02-21T08:43:53;18.85;;;6.97;;
79668;SDS011;69136;52.614;6.976;2024-02-21T08:46:37;19.40;;;8.20;;
79668;SDS011;69136;52.614;6.976;2024-02-21T08:49:24;17.45;;;7.75;;
79668;SDS011;69136;52.614;6.976;2024-02-21T08:52:11;17.67;;;7.60;;
79668;SDS011;69136;52.614;6.976;2024-02-21T08:57:38;17.90;;;7.75;;
79668;SDS011;69136;52.614;6.976;2024-02-21T09:00:22;13.23;;;7.15;;
79668;SDS011;69136;52.614;6.976;2024-02-21T09:03:10;20.90;;;7.97;;
79668;SDS011;69136;52.614;6.976;2024-02-21T09:05:54;17.67;;;7.80;;
79668;SDS011;69136;52.614;6.976;2024-02-21T09:08:39;16.73;;;8.38;;
79668;SDS011;69136;52.614;6.976;2024-02-21T09:11:24;17.10;;;7.82;;
79668;SDS011;69136;52.614;6.976;2024-02-21T09:14:08;15.68;;;7.45;;
79668;SDS011;69136;52.614;6.976;2024-02-21T09:16:52;17.73;;;7.72;;
79668;SDS011;69136;52.614;6.976;2024-02-21T09:22:20;15.82;;;8.02;;
79668;SDS011;69136;52.614;6.976;2024-02-21T09:27:48;14.52;;;7.35;;
79668;SDS011;69136;52.614;6.976;2024-02-21T09:33:17;20.40;;;8.43;;
79668;SDS011;69136;52.614;6.976;2024-02-21T09:36:01;15.93;;;8.13;;
79668;SDS011;69136;52.614;6.976;2024-02-21T09:38:45;19.15;;;8.60;;
79668;SDS011;69136;52.614;6.976;2024-02-21T09:41:29;15.45;;;7.75;;
79668;SDS011;69136;52.614;6.976;2024-02-21T09:44:13;15.95;;;6.65;;
79668;SDS011;69136;52.614;6.976;2024-02-21T09:47:02;16.35;;;8.70;;
79668;SDS011;69136;52.614;6.976;2024-02-21T09:49:48;14.57;;;6.85;;
79668;SDS011;69136;52.614;6.976;2024-02-21T09:52:33;15.48;;;7.68;;
79668;SDS011;69136;52.614;6.976;2024-02-21T09:55:18;17.75;;;7.60;;
79668;SDS011;69136;52.614;6.976;2024-02-21T09:58:02;12.93;;;6.35;;
79668;SDS011;69136;52.614;6.976;2024-02-21T10:00:47;14.13;;;6.75;;
79668;SDS011;69136;52.614;6.976;2024-02-21T10:03:32;16.80;;;7.10;;
79668;SDS011;69136;52.614;6.976;2024-02-21T10:06:20;15.40;;;6.82;;
79668;SDS011;69136;52.614;6.976;2024-02-21T10:11:47;16.38;;;6.85;;
79668;SDS011;69136;52.614;6.976;2024-02-21T10:17:16;16.20;;;6.07;;
79668;SDS011;69136;52.614;6.976;2024-02-21T10:20:08;13.60;;;6.10;;
79668;SDS011;69136;52.614;6.976;2024-02-21T10:23:02;21.67;;;7.03;;
79668;SDS011;69136;52.614;6.976;2024-02-21T10:25:52;11.68;;;6.68;;
79668;SDS011;69136;52.614;6.976;2024-02-21T10:28:36;13.60;;;6.75;;
79668;SDS011;69136;52.614;6.976;2024-02-21T10:31:23;18.05;;;6.45;;
79668;SDS011;69136;52.614;6.976;2024-02-21T10:34:11;16.27;;;7.15;;
79668;SDS011;69136;52.614;6.976;2024-02-21T10:37:10;16.02;;;7.15;;
79668;SDS011;69136;52.614;6.976;2024-02-21T10:39:55;16.63;;;6.78;;
79668;SDS011;69136;52.614;6.976;2024-02-21T10:42:40;16.83;;;8.15;;
79668;SDS011;69136;52.614;6.976;2024-02-21T10:45:30;12.18;;;6.18;;
79668;SDS011;69136;52.614;6.976;2024-02-21T10:48:15;15.10;;;6.90;;
79668;SDS011;69136;52.614;6.976;2024-02-21T10:51:08;13.65;;;6.18;;
79668;SDS011;69136;52.614;6.976;2024-02-21T10:57:20;12.65;;;6.13;;
79668;SDS011;69136;52.614;6.976;2024-02-21T11:00:06;14.18;;;5.78;;
79668;SDS011;69136;52.614;6.976;2024-02-21T11:02:52;12.27;;;5.90;;
79668;SDS011;69136;52.614;6.976;2024-02-21T11:05:36;16.52;;;6.75;;
79668;SDS011;69136;52.614;6.976;2024-02-21T11:08:20;11.30;;;6.38;;
79668;SDS011;69136;52.614;6.976;2024-02-21T11:11:05;10.68;;;6.00;;
79668;SDS011;69136;52.614;6.976;2024-02-21T11:13:49;12.80;;;5.70;;
79668;SDS011;69136;52.614;6.976;2024-02-21T11:16:37;13.70;;;6.28;;
79668;SDS011;69136;52.614;6.976;2024-02-21T11:19:25;11.73;;;5.53;;
79668;SDS011;69136;52.614;6.976;2024-02-21T11:22:16;18.55;;;7.75;;
79668;SDS011;69136;52.614;6.976;2024-02-21T11:25:08;11.40;;;5.97;;
79668;SDS011;69136;52.614;6.976;2024-02-21T11:28:04;10.18;;;5.43;;
79668;SDS011;69136;52.614;6.976;2024-02-21T11:30:50;10.73;;;6.13;;
79668;SDS011;69136;52.614;6.976;2024-02-21T11:33:35;11.73;;;5.60;;
79668;SDS011;69136;52.614;6.976;2024-02-21T11:36:25;12.48;;;5.45;;
79668;SDS011;69136;52.614;6.976;2024-02-21T11:39:09;14.10;;;5.95;;
79668;SDS011;69136;52.614;6.976;2024-02-21T11:42:03;9.00;;;4.40;;
79668;SDS011;69136;52.614;6.976;2024-02-21T11:44:48;10.02;;;5.80;;
79668;SDS011;69136;52.614;6.976;2024-02-21T11:47:32;9.65;;;5.00;;
79668;SDS011;69136;52.614;6.976;2024-02-21T11:50:17;11.75;;;4.85;;
79668;SDS011;69136;52.614;6.976;2024-02-21T11:53:01;12.38;;;5.20;;
79668;SDS011;69136;52.614;6.976;2024-02-21T11:55:46;11.63;;;5.05;;
79668;SDS011;69136;52.614;6.976;2024-02-21T11:58:30;8.45;;;4.70;;
79668;SDS011;69136;52.614;6.976;2024-02-21T12:01:14;9.63;;;4.95;;
79668;SDS011;69136;52.614;6.976;2024-02-21T12:03:59;7.25;;;4.10;;
79668;SDS011;69136;52.614;6.976;2024-02-21T12:06:44;7.38;;;3.75;;
79668;SDS011;69136;52.614;6.976;2024-02-21T12:09:28;8.50;;;4.20;;
79668;SDS011;69136;52.614;6.976;2024-02-21T12:12:13;5.68;;;3.33;;
79668;SDS011;69136;52.614;6.976;2024-02-21T12:14:57;6.88;;;3.55;;
79668;SDS011;69136;52.614;6.976;2024-02-21T12:17:41;6.53;;;3.25;;
79668;SDS011;69136;52.614;6.976;2024-02-21T12:20:26;6.32;;;2.95;;
79668;SDS011;69136;52.614;6.976;2024-02-21T12:23:10;7.32;;;2.83;;
79668;SDS011;69136;52.614;6.976;2024-02-21T12:25:54;5.15;;;3.28;;
79668;SDS011;69136;52.614;6.976;2024-02-21T12:28:39;8.15;;;3.80;;
79668;SDS011;69136;52.614;6.976;2024-02-21T12:31:23;6.32;;;2.88;;
79668;SDS011;69136;52.614;6.976;2024-02-21T12:34:08;4.70;;;2.65;;
79668;SDS011;69136;52.614;6.976;2024-02-21T12:36:53;4.07;;;2.10;;
79668;SDS011;69136;52.614;6.976;2024-02-21T12:39:37;4.53;;;2.00;;
79668;SDS011;69136;52.614;6.976;2024-02-21T12:42:22;3.33;;;2.28;;
79668;SDS011;69136;52.614;6.976;2024-02-21T12:45:08;4.18;;;2.03;;
79668;SDS011;69136;52.614;6.976;2024-02-21T12:47:52;5.68;;;2.67;;
79668;SDS011;69136;52.614;6.976;2024-02-21T12:50:36;5.93;;;2.25;;
79668;SDS011;69136;52.614;6.976;2024-02-21T12:53:20;4.88;;;2.80;;
79668;SDS011;69136;52.614;6.976;2024-02-21T12:56:06;4.10;;;2.50;;
79668;SDS011;69136;52.614;6.976;2024-02-21T12:58:51;6.70;;;3.30;;
79668;SDS011;69136;52.614;6.976;2024-02-21T13:01:36;5.32;;;2.92;;
79668;SDS011;69136;52.614;6.976;2024-02-21T13:04:21;5.63;;;3.28;;
79668;SDS011;69136;52.614;6.976;2024-02-21T13:07:06;5.15;;;3.40;;
79668;SDS011;69136;52.614;6.976;2024-02-21T13:09:51;7.45;;;3.33;;
79668;SDS011;69136;52.614;6.976;2024-02-21T13:12:36;6.05;;;3.60;;
79668;SDS011;69136;52.614;6.976;2024-02-21T13:15:20;10.73;;;4.07;;
79668;SDS011;69136;52.614;6.976;2024-02-21T13:18:04;7.40;;;3.65;;
79668;SDS011;69136;52.614;6.976;2024-02-21T13:20:48;6.93;;;4.15;;
79668;SDS011;69136;52.614;6.976;2024-02-21T13:23:32;9.15;;;3.67;;
79668;SDS011;69136;52.614;6.976;2024-02-21T13:26:17;9.00;;;4.35;;
79668;SDS011;69136;52.614;6.976;2024-02-21T13:29:01;7.38;;;4.63;;
79668;SDS011;69136;52.614;6.976;2024-02-21T13:31:46;6.65;;;4.03;;
79668;SDS011;69136;52.614;6.976;2024-02-21T13:34:30;11.75;;;4.80;;
79668;SDS011;69136;52.614;6.976;2024-02-21T13:37:14;9.18;;;3.60;;
79668;SDS011;69136;52.614;6.976;2024-02-21T13:42:42;7.95;;;3.90;;
79668;SDS011;69136;52.614;6.976;2024-02-21T13:45:27;8.80;;;4.15;;
79668;SDS011;69136;52.614;6.976;2024-02-21T13:48:11;10.30;;;4.20;;
79668;SDS011;69136;52.614;6.976;2024-02-21T13:51:01;6.95;;;4.57;;
79668;SDS011;69136;52.614;6.976;2024-02-21T13:53:48;6.95;;;4.07;;
79668;SDS011;69136;52.614;6.976;2024-02-21T13:56:33;10.20;;;4.32;;
79668;SDS011;69136;52.614;6.976;2024-02-21T13:59:17;5.45;;;3.58;;
79668;SDS011;69136;52.614;6.976;2024-02-21T14:02:02;7.60;;;3.83;;
79668;SDS011;69136;52.614;6.976;2024-02-21T14:04:46;7.78;;;3.53;;
79668;SDS011;69136;52.614;6.976;2024-02-21T14:07:30;8.75;;;3.53;;
79668;SDS011;69136;52.614;6.976;2024-02-21T14:10:14;7.07;;;3.70;;
79668;SDS011;69136;52.614;6.976;2024-02-21T14:12:58;7.53;;;3.75;;
79668;SDS011;69136;52.614;6.976;2024-02-21T14:15:43;6.43;;;3.50;;
79668;SDS011;69136;52.614;6.976;2024-02-21T14:18:32;6.47;;;3.30;;
79668;SDS011;69136;52.614;6.976;2024-02-21T14:21:16;7.15;;;4.00;;
79668;SDS011;69136;52.614;6.976;2024-02-21T14:24:01;10.55;;;3.83;;
79668;SDS011;69136;52.614;6.976;2024-02-21T14:26:46;9.95;;;4.45;;
79668;SDS011;69136;52.614;6.976;2024-02-21T14:29:32;7.07;;;3.22;;
79668;SDS011;69136;52.614;6.976;2024-02-21T14:32:16;7.95;;;3.10;;
79668;SDS011;69136;52.614;6.976;2024-02-21T14:35:01;10.50;;;3.67;;
79668;SDS011;69136;52.614;6.976;2024-02-21T14:37:47;11.88;;;3.92;;
79668;SDS011;69136;52.614;6.976;2024-02-21T14:40:34;7.70;;;3.78;;
79668;SDS011;69136;52.614;6.976;2024-02-21T14:43:18;9.55;;;3.80;;
79668;SDS011;69136;52.614;6.976;2024-02-21T14:46:05;9.43;;;3.40;;
79668;SDS011;69136;52.614;6.976;2024-02-21T14:48:49;6.45;;;3.20;;
79668;SDS011;69136;52.614;6.976;2024-02-21T14:51:34;8.43;;;3.45;;
79668;SDS011;69136;52.614;6.976;2024-02-21T14:54:18;12.40;;;4.47;;
79668;SDS011;69136;52.614;6.976;2024-02-21T14:57:03;9.05;;;3.35;;
79668;SDS011;69136;52.614;6.976;2024-02-21T14:59:47;10.75;;;4.28;;
79668;SDS011;69136;52.614;6.976;2024-02-21T15:02:33;8.95;;;3.50;;
79668;SDS011;69136;52.614;6.976;2024-02-21T15:05:18;6.07;;;3.15;;
79668;SDS011;69136;52.614;6.976;2024-02-21T15:08:03;6.38;;;3.72;;
79668;SDS011;69136;52.614;6.976;2024-02-21T15:10:47;6.90;;;3.42;;
79668;SDS011;69136;52.614;6.976;2024-02-21T15:13:34;9.68;;;3.35;;
79668;SDS011;69136;52.614;6.976;2024-02-21T15:16:18;8.80;;;3.97;;
79668;SDS011;69136;52.614;6.976;2024-02-21T15:19:02;6.88;;;3.15;;
79668;SDS011;69136;52.614;6.976;2024-02-21T15:21:47;6.88;;;3.70;;
79668;SDS011;69136;52.614;6.976;2024-02-21T15:24:31;8.40;;;3.42;;
79668;SDS011;69136;52.614;6.976;2024-02-21T15:27:15;6.32;;;3.58;;
79668;SDS011;69136;52.614;6.976;2024-02-21T15:30:01;8.50;;;3.38;;
79668;SDS011;69136;52.614;6.976;2024-02-21T15:32:45;7.70;;;3.55;;
79668;SDS011;69136;52.614;6.976;2024-02-21T15:35:30;7.97;;;3.50;;
79668;SDS011;69136;52.614;6.976;2024-02-21T15:40:58;8.10;;;3.33;;
79668;SDS011;69136;52.614;6.976;2024-02-21T15:43:42;10.07;;;3.17;;
79668;SDS011;69136;52.614;6.976;2024-02-21T15:46:29;7.00;;;3.47;;
79668;SDS011;69136;52.614;6.976;2024-02-21T15:49:14;9.07;;;3.67;;
79668;SDS011;69136;52.614;6.976;2024-02-21T15:51:59;7.07;;;3.35;;
79668;SDS011;69136;52.614;6.976;2024-02-21T15:54:43;8.52;;;3.70;;
79668;SDS011;69136;52.614;6.976;2024-02-21T15:57:27;11.10;;;4.07;;
79668;SDS011;69136;52.614;6.976;2024-02-21T16:00:12;6.75;;;3.30;;
79668;SDS011;69136;52.614;6.976;2024-02-21T16:02:57;8.18;;;3.05;;
79668;SDS011;69136;52.614;6.976;2024-02-21T16:05:42;11.13;;;3.53;;
79668;SDS011;69136;52.614;6.976;2024-02-21T16:08:26;6.22;;;3.35;;
79668;SDS011;69136;52.614;6.976;2024-02-21T16:11:13;8.82;;;3.25;;
79668;SDS011;69136;52.614;6.976;2024-02-21T16:14:00;8.80;;;3.67;;
79668;SDS011;69136;52.614;6.976;2024-02-21T16:16:46;7.13;;;2.88;;
79668;SDS011;69136;52.614;6.976;2024-02-21T16:19:31;7.47;;;3.40;;
79668;SDS011;69136;52.614;6.976;2024-02-21T16:22:16;8.73;;;3.03;;
79668;SDS011;69136;52.614;6.976;2024-02-21T16:25:00;6.13;;;2.88;;
79668;SDS011;69136;52.614;6.976;2024-02-21T16:27:44;8.95;;;2.85;;
79668;SDS011;69136;52.614;6.976;2024-02-21T16:30:28;5.80;;;2.85;;
79668;SDS011;69136;52.614;6.976;2024-02-21T16:33:13;6.88;;;3.33;;
79668;SDS011;69136;52.614;6.976;2024-02-21T16:35:57;9.60;;;3.10;;
79668;SDS011;69136;52.614;6.976;2024-02-21T16:38:41;5.65;;;2.72;;
79668;SDS011;69136;52.614;6.976;2024-02-21T16:41:26;6.90;;;3.80;;
79668;SDS011;69136;52.614;6.976;2024-02-21T16:44:11;7.20;;;2.72;;
79668;SDS011;69136;52.614;6.976;2024-02-21T16:46:55;6.43;;;3.13;;
79668;SDS011;69136;52.614;6.976;2024-02-21T16:49:39;7.45;;;3.20;;
79668;SDS011;69136;52.614;6.976;2024-02-21T16:52:24;5.72;;;2.83;;
79668;SDS011;69136;52.614;6.976;2024-02-21T16:55:08;6.53;;;3.10;;
79668;SDS011;69136;52.614;6.976;2024-02-21T16:57:53;8.55;;;3.55;;
79668;SDS011;69136;52.614;6.976;2024-02-21T17:00:37;8.93;;;3.80;;
79668;SDS011;69136;52.614;6.976;2024-02-21T17:03:22;6.97;;;3.30;;
79668;SDS011;69136;52.614;6.976;2024-02-21T17:06:07;7.13;;;2.88;;
79668;SDS011;69136;52.614;6.976;2024-02-21T17:08:51;5.50;;;3.00;;
79668;SDS011;69136;52.614;6.976;2024-02-21T17:11:36;9.95;;;3.75;;
79668;SDS011;69136;52.614;6.976;2024-02-21T17:14:21;9.88;;;4.13;;
79668;SDS011;69136;52.614;6.976;2024-02-21T17:17:06;8.55;;;4.10;;
79668;SDS011;69136;52.614;6.976;2024-02-21T17:19:50;8.55;;;3.70;;
79668;SDS011;69136;52.614;6.976;2024-02-21T17:22:34;9.13;;;3.35;;
79668;SDS011;69136;52.614;6.976;2024-02-21T17:25:20;8.82;;;3.17;;
79668;SDS011;69136;52.614;6.976;2024-02-21T17:28:04;11.43;;;4.10;;
79668;SDS011;69136;52.614;6.976;2024-02-21T17:30:49;9.13;;;3.70;;
79668;SDS011;69136;52.614;6.976;2024-02-21T17:33:33;11.07;;;4.20;;
79668;SDS011;69136;52.614;6.976;2024-02-21T17:36:18;9.13;;;3.92;;
79668;SDS011;69136;52.614;6.976;2024-02-21T17:39:02;8.73;;;3.50;;
79668;SDS011;69136;52.614;6.976;2024-02-21T17:41:47;6.50;;;3.95;;
79668;SDS011;69136;52.614;6.976;2024-02-21T17:44:31;11.02;;;3.47;;
79668;SDS011;69136;52.614;6.976;2024-02-21T17:47:16;7.85;;;3.50;;
79668;SDS011;69136;52.614;6.976;2024-02-21T17:50:00;7.78;;;3.63;;
79668;SDS011;69136;52.614;6.976;2024-02-21T17:52:44;10.75;;;3.85;;